sensor_id;sensor_type;location;lat;lon;timestamp;P1;durP1;ratioP1;P2;durP2;ratioP2
57155;SDS011;43023;59.928;10.682;2023-07-22T00:01:09;2.03;;;0.93;;
57155;SDS011;43023;59.928;10.682;2023-07-22T00:03:35;0.93;;;0.43;;
57155;SDS011;43023;59.928;10.682;2023-07-22T00:06:05;1.27;;;0.40;;
57155;SDS011;43023;59.928;10.682;2023-07-22T00:08:32;1.27;;;0.68;;
57155;SDS011;43023;59.928;10.682;2023-07-22T00:10:58;0.50;;;0.45;;
57155;SDS011;43023;59.928;10.682;2023-07-22T00:13:25;1.67;;;0.50;;
57155;SDS011;43023;59.928;10.682;2023-07-22T00:15:52;1.85;;;0.40;;
57155;SDS011;43023;59.928;10.682;2023-07-22T00:18:18;0.98;;;0.30;;
57155;SDS011;43023;59.928;10.682;2023-07-22T00:20:44;2.97;;;0.40;;
57155;SDS011;43023;59.928;10.682;2023-07-22T00:23:10;0.60;;;0.38;;
57155;SDS011;43023;59.928;10.682;2023-07-22T00:25:37;1.40;;;0.40;;
57155;SDS011;43023;59.928;10.682;2023-07-22T00:28:03;2.10;;;0.40;;
57155;SDS011;43023;59.928;10.682;2023-07-22T00:30:29;1.95;;;0.30;;
57155;SDS011;43023;59.928;10.682;2023-07-22T00:32:55;0.85;;;0.47;;
57155;SDS011;43023;59.928;10.682;2023-07-22T00:35:21;0.38;;;0.30;;
57155;SDS011;43023;59.928;10.682;2023-07-22T00:37:47;1.33;;;0.45;;
57155;SDS011;43023;59.928;10.682;2023-07-22T00:40:13;0.85;;;0.55;;
57155;SDS011;43023;59.928;10.682;2023-07-22T00:42:40;0.32;;;0.32;;
57155;SDS011;43023;59.928;10.682;2023-07-22T00:45:07;0.43;;;0.43;;
57155;SDS011;43023;59.928;10.682;2023-07-22T00:47:36;1.70;;;0.63;;
57155;SDS011;43023;59.928;10.682;2023-07-22T00:50:02;0.80;;;0.32;;
57155;SDS011;43023;59.928;10.682;2023-07-22T00:52:29;0.95;;;0.60;;
57155;SDS011;43023;59.928;10.682;2023-07-22T00:54:55;1.38;;;0.60;;
57155;SDS011;43023;59.928;10.682;2023-07-22T00:57:21;0.88;;;0.60;;
57155;SDS011;43023;59.928;10.682;2023-07-22T00:59:48;1.00;;;0.30;;
57155;SDS011;43023;59.928;10.682;2023-07-22T01:02:14;1.38;;;0.40;;
57155;SDS011;43023;59.928;10.682;2023-07-22T01:04:40;0.95;;;0.30;;
57155;SDS011;43023;59.928;10.682;2023-07-22T01:07:07;0.35;;;0.35;;
57155;SDS011;43023;59.928;10.682;2023-07-22T01:09:38;0.82;;;0.40;;
57155;SDS011;43023;59.928;10.682;2023-07-22T01:12:05;0.60;;;0.30;;
57155;SDS011;43023;59.928;10.682;2023-07-22T01:14:32;1.15;;;0.52;;
57155;SDS011;43023;59.928;10.682;2023-07-22T01:16:59;0.77;;;0.28;;
57155;SDS011;43023;59.928;10.682;2023-07-22T01:19:26;1.45;;;0.25;;
57155;SDS011;43023;59.928;10.682;2023-07-22T01:21:52;1.55;;;0.38;;
57155;SDS011;43023;59.928;10.682;2023-07-22T01:24:18;1.13;;;0.60;;
57155;SDS011;43023;59.928;10.682;2023-07-22T01:26:44;0.25;;;0.20;;
57155;SDS011;43023;59.928;10.682;2023-07-22T01:29:11;1.15;;;0.45;;
57155;SDS011;43023;59.928;10.682;2023-07-22T01:31:37;0.38;;;0.30;;
57155;SDS011;43023;59.928;10.682;2023-07-22T01:34:04;0.20;;;0.20;;
57155;SDS011;43023;59.928;10.682;2023-07-22T01:36:30;0.95;;;0.30;;
57155;SDS011;43023;59.928;10.682;2023-07-22T01:38:57;0.47;;;0.15;;
57155;SDS011;43023;59.928;10.682;2023-07-22T01:41:23;0.40;;;0.40;;
57155;SDS011;43023;59.928;10.682;2023-07-22T01:43:49;1.15;;;0.40;;
57155;SDS011;43023;59.928;10.682;2023-07-22T01:46:15;0.20;;;0.20;;
57155;SDS011;43023;59.928;10.682;2023-07-22T01:48:41;0.30;;;0.30;;
57155;SDS011;43023;59.928;10.682;2023-07-22T01:51:08;0.30;;;0.30;;
57155;SDS011;43023;59.928;10.682;2023-07-22T01:53:34;2.28;;;0.43;;
57155;SDS011;43023;59.928;10.682;2023-07-22T01:56:00;1.77;;;0.40;;
57155;SDS011;43023;59.928;10.682;2023-07-22T01:58:26;2.53;;;0.38;;
57155;SDS011;43023;59.928;10.682;2023-07-22T02:03:28;1.13;;;0.60;;
57155;SDS011;43023;59.928;10.682;2023-07-22T02:06:01;0.47;;;0.30;;
57155;SDS011;43023;59.928;10.682;2023-07-22T02:08:27;0.40;;;0.40;;
57155;SDS011;43023;59.928;10.682;2023-07-22T02:10:53;0.25;;;0.25;;
57155;SDS011;43023;59.928;10.682;2023-07-22T02:13:20;0.70;;;0.32;;
57155;SDS011;43023;59.928;10.682;2023-07-22T02:15:46;1.35;;;0.40;;
57155;SDS011;43023;59.928;10.682;2023-07-22T02:18:12;0.98;;;0.40;;
57155;SDS011;43023;59.928;10.682;2023-07-22T02:20:42;0.25;;;0.25;;
57155;SDS011;43023;59.928;10.682;2023-07-22T02:23:08;0.68;;;0.40;;
57155;SDS011;43023;59.928;10.682;2023-07-22T02:25:35;1.15;;;0.30;;
57155;SDS011;43023;59.928;10.682;2023-07-22T02:28:01;0.60;;;0.32;;
57155;SDS011;43023;59.928;10.682;2023-07-22T02:30:27;0.30;;;0.30;;
57155;SDS011;43023;59.928;10.682;2023-07-22T02:32:53;0.77;;;0.30;;
57155;SDS011;43023;59.928;10.682;2023-07-22T02:35:19;1.27;;;0.65;;
57155;SDS011;43023;59.928;10.682;2023-07-22T02:37:45;0.73;;;0.40;;
57155;SDS011;43023;59.928;10.682;2023-07-22T02:40:11;2.28;;;0.57;;
57155;SDS011;43023;59.928;10.682;2023-07-22T02:42:38;1.25;;;0.35;;
57155;SDS011;43023;59.928;10.682;2023-07-22T02:45:04;0.35;;;0.30;;
57155;SDS011;43023;59.928;10.682;2023-07-22T02:47:32;2.22;;;0.50;;
57155;SDS011;43023;59.928;10.682;2023-07-22T02:50:02;1.08;;;0.45;;
57155;SDS011;43023;59.928;10.682;2023-07-22T02:52:31;0.98;;;0.20;;
57155;SDS011;43023;59.928;10.682;2023-07-22T02:55:07;1.25;;;0.65;;
57155;SDS011;43023;59.928;10.682;2023-07-22T02:57:34;0.47;;;0.20;;
57155;SDS011;43023;59.928;10.682;2023-07-22T03:00:00;0.55;;;0.45;;
57155;SDS011;43023;59.928;10.682;2023-07-22T03:02:30;0.93;;;0.30;;
57155;SDS011;43023;59.928;10.682;2023-07-22T03:04:56;1.65;;;0.45;;
57155;SDS011;43023;59.928;10.682;2023-07-22T03:07:23;0.40;;;0.32;;
57155;SDS011;43023;59.928;10.682;2023-07-22T03:09:51;2.58;;;0.55;;
57155;SDS011;43023;59.928;10.682;2023-07-22T03:12:17;1.58;;;0.38;;
57155;SDS011;43023;59.928;10.682;2023-07-22T03:14:43;0.30;;;0.20;;
57155;SDS011;43023;59.928;10.682;2023-07-22T03:17:10;2.10;;;0.30;;
57155;SDS011;43023;59.928;10.682;2023-07-22T03:19:39;0.73;;;0.50;;
57155;SDS011;43023;59.928;10.682;2023-07-22T03:22:05;0.52;;;0.28;;
57155;SDS011;43023;59.928;10.682;2023-07-22T03:24:31;1.10;;;0.32;;
57155;SDS011;43023;59.928;10.682;2023-07-22T03:26:57;1.40;;;0.47;;
57155;SDS011;43023;59.928;10.682;2023-07-22T03:29:23;1.27;;;0.52;;
57155;SDS011;43023;59.928;10.682;2023-07-22T03:31:49;1.35;;;0.60;;
57155;SDS011;43023;59.928;10.682;2023-07-22T03:34:15;0.63;;;0.40;;
57155;SDS011;43023;59.928;10.682;2023-07-22T03:36:41;2.75;;;0.68;;
57155;SDS011;43023;59.928;10.682;2023-07-22T03:39:08;2.55;;;0.80;;
57155;SDS011;43023;59.928;10.682;2023-07-22T03:41:34;1.45;;;0.50;;
57155;SDS011;43023;59.928;10.682;2023-07-22T03:44:00;0.43;;;0.40;;
57155;SDS011;43023;59.928;10.682;2023-07-22T03:46:26;0.30;;;0.30;;
57155;SDS011;43023;59.928;10.682;2023-07-22T03:48:52;1.20;;;0.50;;
57155;SDS011;43023;59.928;10.682;2023-07-22T03:51:19;1.00;;;0.45;;
57155;SDS011;43023;59.928;10.682;2023-07-22T03:53:45;1.38;;;0.63;;
57155;SDS011;43023;59.928;10.682;2023-07-22T03:56:11;1.58;;;0.70;;
57155;SDS011;43023;59.928;10.682;2023-07-22T03:58:37;1.67;;;0.40;;
57155;SDS011;43023;59.928;10.682;2023-07-22T04:01:03;1.48;;;0.57;;
57155;SDS011;43023;59.928;10.682;2023-07-22T04:03:29;1.38;;;0.50;;
57155;SDS011;43023;59.928;10.682;2023-07-22T04:05:56;0.75;;;0.32;;
57155;SDS011;43023;59.928;10.682;2023-07-22T04:08:22;1.45;;;0.57;;
57155;SDS011;43023;59.928;10.682;2023-07-22T04:10:54;0.95;;;0.40;;
57155;SDS011;43023;59.928;10.682;2023-07-22T04:13:20;1.88;;;0.60;;
57155;SDS011;43023;59.928;10.682;2023-07-22T04:15:46;2.50;;;0.70;;
57155;SDS011;43023;59.928;10.682;2023-07-22T04:18:14;3.17;;;0.75;;
57155;SDS011;43023;59.928;10.682;2023-07-22T04:20:40;1.00;;;0.50;;
57155;SDS011;43023;59.928;10.682;2023-07-22T04:23:06;1.13;;;0.43;;
57155;SDS011;43023;59.928;10.682;2023-07-22T04:25:32;1.33;;;0.98;;
57155;SDS011;43023;59.928;10.682;2023-07-22T04:27:59;4.28;;;0.60;;
57155;SDS011;43023;59.928;10.682;2023-07-22T04:30:25;2.38;;;0.65;;
57155;SDS011;43023;59.928;10.682;2023-07-22T04:32:51;1.15;;;0.47;;
57155;SDS011;43023;59.928;10.682;2023-07-22T04:35:17;2.13;;;1.00;;
57155;SDS011;43023;59.928;10.682;2023-07-22T04:37:43;0.90;;;0.40;;
57155;SDS011;43023;59.928;10.682;2023-07-22T04:40:13;1.67;;;0.50;;
57155;SDS011;43023;59.928;10.682;2023-07-22T04:42:40;1.50;;;0.70;;
57155;SDS011;43023;59.928;10.682;2023-07-22T04:45:07;1.73;;;0.70;;
57155;SDS011;43023;59.928;10.682;2023-07-22T04:47:34;2.00;;;0.60;;
57155;SDS011;43023;59.928;10.682;2023-07-22T04:50:01;2.42;;;0.60;;
57155;SDS011;43023;59.928;10.682;2023-07-22T04:52:27;3.50;;;0.90;;
57155;SDS011;43023;59.928;10.682;2023-07-22T04:54:53;2.53;;;0.73;;
57155;SDS011;43023;59.928;10.682;2023-07-22T04:57:20;4.30;;;0.75;;
57155;SDS011;43023;59.928;10.682;2023-07-22T04:59:46;2.00;;;0.85;;
57155;SDS011;43023;59.928;10.682;2023-07-22T05:02:12;1.98;;;0.70;;
57155;SDS011;43023;59.928;10.682;2023-07-22T05:04:38;3.67;;;0.70;;
57155;SDS011;43023;59.928;10.682;2023-07-22T05:07:04;3.35;;;1.00;;
57155;SDS011;43023;59.928;10.682;2023-07-22T05:09:31;2.15;;;0.70;;
57155;SDS011;43023;59.928;10.682;2023-07-22T05:11:58;3.28;;;0.82;;
57155;SDS011;43023;59.928;10.682;2023-07-22T05:14:24;1.08;;;0.90;;
57155;SDS011;43023;59.928;10.682;2023-07-22T05:16:50;2.35;;;0.70;;
57155;SDS011;43023;59.928;10.682;2023-07-22T05:19:16;3.15;;;1.48;;
57155;SDS011;43023;59.928;10.682;2023-07-22T05:21:43;1.67;;;0.82;;
57155;SDS011;43023;59.928;10.682;2023-07-22T05:24:09;3.13;;;0.80;;
57155;SDS011;43023;59.928;10.682;2023-07-22T05:26:36;2.47;;;0.90;;
57155;SDS011;43023;59.928;10.682;2023-07-22T05:29:02;1.60;;;0.85;;
57155;SDS011;43023;59.928;10.682;2023-07-22T05:31:28;4.32;;;1.10;;
57155;SDS011;43023;59.928;10.682;2023-07-22T05:33:54;2.15;;;0.70;;
57155;SDS011;43023;59.928;10.682;2023-07-22T05:36:20;2.05;;;0.80;;
57155;SDS011;43023;59.928;10.682;2023-07-22T05:38:46;1.52;;;1.15;;
57155;SDS011;43023;59.928;10.682;2023-07-22T05:41:12;1.55;;;1.20;;
57155;SDS011;43023;59.928;10.682;2023-07-22T05:43:39;1.58;;;0.95;;
57155;SDS011;43023;59.928;10.682;2023-07-22T05:46:05;0.93;;;0.50;;
57155;SDS011;43023;59.928;10.682;2023-07-22T05:48:31;1.67;;;1.00;;
57155;SDS011;43023;59.928;10.682;2023-07-22T05:50:57;1.50;;;0.77;;
57155;SDS011;43023;59.928;10.682;2023-07-22T05:53:23;3.47;;;0.77;;
57155;SDS011;43023;59.928;10.682;2023-07-22T05:55:49;2.25;;;0.80;;
57155;SDS011;43023;59.928;10.682;2023-07-22T05:58:15;1.52;;;0.90;;
57155;SDS011;43023;59.928;10.682;2023-07-22T06:00:42;2.67;;;0.80;;
57155;SDS011;43023;59.928;10.682;2023-07-22T06:03:08;3.05;;;0.73;;
57155;SDS011;43023;59.928;10.682;2023-07-22T06:05:34;3.28;;;0.90;;
57155;SDS011;43023;59.928;10.682;2023-07-22T06:08:00;2.63;;;0.80;;
57155;SDS011;43023;59.928;10.682;2023-07-22T06:10:27;4.20;;;1.20;;
57155;SDS011;43023;59.928;10.682;2023-07-22T06:12:53;1.60;;;0.90;;
57155;SDS011;43023;59.928;10.682;2023-07-22T06:15:19;2.67;;;1.13;;
57155;SDS011;43023;59.928;10.682;2023-07-22T06:17:45;2.08;;;0.65;;
57155;SDS011;43023;59.928;10.682;2023-07-22T06:20:11;2.45;;;0.63;;
57155;SDS011;43023;59.928;10.682;2023-07-22T06:22:37;2.00;;;0.80;;
57155;SDS011;43023;59.928;10.682;2023-07-22T06:25:04;2.38;;;0.88;;
57155;SDS011;43023;59.928;10.682;2023-07-22T06:27:31;2.28;;;0.75;;
57155;SDS011;43023;59.928;10.682;2023-07-22T06:29:57;3.05;;;1.00;;
57155;SDS011;43023;59.928;10.682;2023-07-22T06:32:23;2.88;;;0.95;;
57155;SDS011;43023;59.928;10.682;2023-07-22T06:34:49;2.92;;;1.20;;
57155;SDS011;43023;59.928;10.682;2023-07-22T06:37:15;1.38;;;0.85;;
57155;SDS011;43023;59.928;10.682;2023-07-22T06:39:41;1.52;;;0.63;;
57155;SDS011;43023;59.928;10.682;2023-07-22T06:42:07;1.42;;;0.73;;
57155;SDS011;43023;59.928;10.682;2023-07-22T06:44:33;2.05;;;0.77;;
57155;SDS011;43023;59.928;10.682;2023-07-22T06:47:00;2.80;;;1.08;;
57155;SDS011;43023;59.928;10.682;2023-07-22T06:49:26;1.60;;;0.90;;
57155;SDS011;43023;59.928;10.682;2023-07-22T06:51:52;1.80;;;0.68;;
57155;SDS011;43023;59.928;10.682;2023-07-22T06:54:18;2.97;;;0.65;;
57155;SDS011;43023;59.928;10.682;2023-07-22T06:56:44;2.33;;;1.00;;
57155;SDS011;43023;59.928;10.682;2023-07-22T06:59:10;4.80;;;1.13;;
57155;SDS011;43023;59.928;10.682;2023-07-22T07:01:36;9.00;;;1.20;;
57155;SDS011;43023;59.928;10.682;2023-07-22T07:04:02;3.88;;;1.13;;
57155;SDS011;43023;59.928;10.682;2023-07-22T07:06:28;3.40;;;1.02;;
57155;SDS011;43023;59.928;10.682;2023-07-22T07:08:55;6.20;;;0.98;;
57155;SDS011;43023;59.928;10.682;2023-07-22T07:11:21;3.95;;;1.08;;
57155;SDS011;43023;59.928;10.682;2023-07-22T07:13:47;2.47;;;0.70;;
57155;SDS011;43023;59.928;10.682;2023-07-22T07:16:19;3.78;;;0.85;;
57155;SDS011;43023;59.928;10.682;2023-07-22T07:21:12;3.45;;;0.93;;
57155;SDS011;43023;59.928;10.682;2023-07-22T07:23:38;2.30;;;0.90;;
57155;SDS011;43023;59.928;10.682;2023-07-22T07:26:04;3.58;;;0.60;;
57155;SDS011;43023;59.928;10.682;2023-07-22T07:28:30;3.80;;;0.75;;
57155;SDS011;43023;59.928;10.682;2023-07-22T07:30:57;10.10;;;1.20;;
57155;SDS011;43023;59.928;10.682;2023-07-22T07:33:23;10.02;;;0.80;;
57155;SDS011;43023;59.928;10.682;2023-07-22T07:35:49;1.65;;;0.60;;
57155;SDS011;43023;59.928;10.682;2023-07-22T07:38:15;6.07;;;0.60;;
57155;SDS011;43023;59.928;10.682;2023-07-22T07:40:41;7.25;;;1.20;;
57155;SDS011;43023;59.928;10.682;2023-07-22T07:43:07;4.30;;;0.90;;
57155;SDS011;43023;59.928;10.682;2023-07-22T07:45:35;2.83;;;0.73;;
57155;SDS011;43023;59.928;10.682;2023-07-22T07:48:01;3.30;;;0.70;;
57155;SDS011;43023;59.928;10.682;2023-07-22T07:50:27;1.00;;;0.75;;
57155;SDS011;43023;59.928;10.682;2023-07-22T07:52:53;2.65;;;0.73;;
57155;SDS011;43023;59.928;10.682;2023-07-22T07:55:19;2.05;;;0.63;;
57155;SDS011;43023;59.928;10.682;2023-07-22T07:57:45;2.58;;;0.80;;
57155;SDS011;43023;59.928;10.682;2023-07-22T08:00:11;2.17;;;0.50;;
57155;SDS011;43023;59.928;10.682;2023-07-22T08:02:37;1.48;;;0.55;;
57155;SDS011;43023;59.928;10.682;2023-07-22T08:05:03;3.35;;;0.90;;
57155;SDS011;43023;59.928;10.682;2023-07-22T08:07:30;1.35;;;0.40;;
57155;SDS011;43023;59.928;10.682;2023-07-22T08:09:56;1.67;;;0.50;;
57155;SDS011;43023;59.928;10.682;2023-07-22T08:12:23;2.78;;;0.60;;
57155;SDS011;43023;59.928;10.682;2023-07-22T08:14:51;1.45;;;0.77;;
57155;SDS011;43023;59.928;10.682;2023-07-22T08:17:17;3.22;;;0.70;;
57155;SDS011;43023;59.928;10.682;2023-07-22T08:19:43;1.10;;;0.40;;
57155;SDS011;43023;59.928;10.682;2023-07-22T08:22:10;2.50;;;0.50;;
57155;SDS011;43023;59.928;10.682;2023-07-22T08:24:36;2.65;;;0.40;;
57155;SDS011;43023;59.928;10.682;2023-07-22T08:27:02;0.40;;;0.40;;
57155;SDS011;43023;59.928;10.682;2023-07-22T08:29:28;1.58;;;0.60;;
57155;SDS011;43023;59.928;10.682;2023-07-22T08:31:54;3.75;;;0.80;;
57155;SDS011;43023;59.928;10.682;2023-07-22T08:34:20;9.75;;;0.63;;
57155;SDS011;43023;59.928;10.682;2023-07-22T08:36:47;2.53;;;0.43;;
57155;SDS011;43023;59.928;10.682;2023-07-22T08:39:13;1.77;;;0.50;;
57155;SDS011;43023;59.928;10.682;2023-07-22T08:41:39;0.63;;;0.60;;
57155;SDS011;43023;59.928;10.682;2023-07-22T08:44:06;2.88;;;0.73;;
57155;SDS011;43023;59.928;10.682;2023-07-22T08:46:33;1.45;;;0.60;;
57155;SDS011;43023;59.928;10.682;2023-07-22T08:49:00;3.38;;;0.30;;
57155;SDS011;43023;59.928;10.682;2023-07-22T08:51:26;3.20;;;0.40;;
57155;SDS011;43023;59.928;10.682;2023-07-22T08:53:56;3.08;;;0.52;;
57155;SDS011;43023;59.928;10.682;2023-07-22T08:56:25;0.93;;;0.40;;
57155;SDS011;43023;59.928;10.682;2023-07-22T08:58:52;3.55;;;0.63;;
57155;SDS011;43023;59.928;10.682;2023-07-22T09:01:18;2.25;;;0.57;;
57155;SDS011;43023;59.928;10.682;2023-07-22T09:03:44;2.63;;;0.35;;
57155;SDS011;43023;59.928;10.682;2023-07-22T09:06:10;4.28;;;0.47;;
57155;SDS011;43023;59.928;10.682;2023-07-22T09:08:37;4.03;;;0.73;;
57155;SDS011;43023;59.928;10.682;2023-07-22T09:11:03;3.03;;;0.55;;
57155;SDS011;43023;59.928;10.682;2023-07-22T09:13:29;5.75;;;0.77;;
57155;SDS011;43023;59.928;10.682;2023-07-22T09:15:57;1.60;;;0.70;;
57155;SDS011;43023;59.928;10.682;2023-07-22T09:18:26;1.25;;;0.50;;
57155;SDS011;43023;59.928;10.682;2023-07-22T09:20:52;1.20;;;0.38;;
57155;SDS011;43023;59.928;10.682;2023-07-22T09:23:31;3.30;;;0.70;;
57155;SDS011;43023;59.928;10.682;2023-07-22T09:26:07;2.67;;;0.40;;
57155;SDS011;43023;59.928;10.682;2023-07-22T09:28:47;3.20;;;0.40;;
57155;SDS011;43023;59.928;10.682;2023-07-22T09:31:13;5.28;;;0.88;;
57155;SDS011;43023;59.928;10.682;2023-07-22T09:33:39;4.82;;;0.60;;
57155;SDS011;43023;59.928;10.682;2023-07-22T09:36:05;1.02;;;0.50;;
57155;SDS011;43023;59.928;10.682;2023-07-22T09:38:31;1.95;;;0.60;;
57155;SDS011;43023;59.928;10.682;2023-07-22T09:40:57;2.08;;;0.95;;
57155;SDS011;43023;59.928;10.682;2023-07-22T09:43:23;3.50;;;0.80;;
57155;SDS011;43023;59.928;10.682;2023-07-22T09:45:49;1.27;;;0.65;;
57155;SDS011;43023;59.928;10.682;2023-07-22T09:48:15;1.35;;;0.55;;
57155;SDS011;43023;59.928;10.682;2023-07-22T09:50:41;1.23;;;0.63;;
57155;SDS011;43023;59.928;10.682;2023-07-22T09:53:07;4.78;;;0.60;;
57155;SDS011;43023;59.928;10.682;2023-07-22T09:55:34;0.80;;;0.57;;
57155;SDS011;43023;59.928;10.682;2023-07-22T09:58:04;1.33;;;0.40;;
57155;SDS011;43023;59.928;10.682;2023-07-22T10:00:31;2.30;;;0.55;;
57155;SDS011;43023;59.928;10.682;2023-07-22T10:02:58;1.65;;;0.63;;
57155;SDS011;43023;59.928;10.682;2023-07-22T10:05:24;4.38;;;0.60;;
57155;SDS011;43023;59.928;10.682;2023-07-22T10:07:51;1.05;;;0.50;;
57155;SDS011;43023;59.928;10.682;2023-07-22T10:10:19;1.77;;;0.52;;
57155;SDS011;43023;59.928;10.682;2023-07-22T10:12:46;0.50;;;0.50;;
57155;SDS011;43023;59.928;10.682;2023-07-22T10:15:15;1.02;;;0.60;;
57155;SDS011;43023;59.928;10.682;2023-07-22T10:17:45;0.88;;;0.70;;
57155;SDS011;43023;59.928;10.682;2023-07-22T10:20:12;1.20;;;0.50;;
57155;SDS011;43023;59.928;10.682;2023-07-22T10:22:44;0.68;;;0.47;;
57155;SDS011;43023;59.928;10.682;2023-07-22T10:25:20;2.97;;;0.63;;
57155;SDS011;43023;59.928;10.682;2023-07-22T10:27:47;0.70;;;0.30;;
57155;SDS011;43023;59.928;10.682;2023-07-22T10:30:14;1.75;;;0.40;;
57155;SDS011;43023;59.928;10.682;2023-07-22T10:32:41;1.38;;;0.35;;
57155;SDS011;43023;59.928;10.682;2023-07-22T10:35:08;0.93;;;0.30;;
57155;SDS011;43023;59.928;10.682;2023-07-22T10:37:40;0.65;;;0.30;;
57155;SDS011;43023;59.928;10.682;2023-07-22T10:42:52;0.85;;;0.52;;
57155;SDS011;43023;59.928;10.682;2023-07-22T10:45:25;0.85;;;0.57;;
57155;SDS011;43023;59.928;10.682;2023-07-22T10:53:10;2.63;;;0.68;;
57155;SDS011;43023;59.928;10.682;2023-07-22T10:58:21;2.63;;;0.60;;
57155;SDS011;43023;59.928;10.682;2023-07-22T11:00:49;1.63;;;0.75;;
57155;SDS011;43023;59.928;10.682;2023-07-22T11:03:15;2.72;;;0.60;;
57155;SDS011;43023;59.928;10.682;2023-07-22T11:05:49;1.50;;;0.75;;
57155;SDS011;43023;59.928;10.682;2023-07-22T11:08:16;2.83;;;0.43;;
57155;SDS011;43023;59.928;10.682;2023-07-22T11:10:54;1.42;;;0.38;;
57155;SDS011;43023;59.928;10.682;2023-07-22T11:13:27;1.95;;;0.30;;
57155;SDS011;43023;59.928;10.682;2023-07-22T11:15:57;2.67;;;0.47;;
57155;SDS011;43023;59.928;10.682;2023-07-22T11:18:36;2.43;;;0.60;;
57155;SDS011;43023;59.928;10.682;2023-07-22T11:21:06;1.85;;;0.52;;
57155;SDS011;43023;59.928;10.682;2023-07-22T11:23:33;2.38;;;0.73;;
57155;SDS011;43023;59.928;10.682;2023-07-22T11:26:00;2.47;;;0.55;;
57155;SDS011;43023;59.928;10.682;2023-07-22T11:28:27;2.28;;;0.60;;
57155;SDS011;43023;59.928;10.682;2023-07-22T11:30:53;10.65;;;1.00;;
57155;SDS011;43023;59.928;10.682;2023-07-22T11:33:19;8.18;;;1.20;;
57155;SDS011;43023;59.928;10.682;2023-07-22T11:35:45;5.78;;;1.10;;
57155;SDS011;43023;59.928;10.682;2023-07-22T11:38:12;2.92;;;1.02;;
57155;SDS011;43023;59.928;10.682;2023-07-22T11:40:38;4.32;;;0.80;;
57155;SDS011;43023;59.928;10.682;2023-07-22T11:43:04;5.85;;;1.17;;
57155;SDS011;43023;59.928;10.682;2023-07-22T11:45:30;1.38;;;0.60;;
57155;SDS011;43023;59.928;10.682;2023-07-22T11:47:57;2.25;;;0.70;;
57155;SDS011;43023;59.928;10.682;2023-07-22T11:50:33;1.33;;;0.68;;
57155;SDS011;43023;59.928;10.682;2023-07-22T11:52:59;4.13;;;0.80;;
57155;SDS011;43023;59.928;10.682;2023-07-22T11:55:25;0.88;;;0.57;;
57155;SDS011;43023;59.928;10.682;2023-07-22T11:57:54;3.30;;;0.95;;
57155;SDS011;43023;59.928;10.682;2023-07-22T12:00:20;2.95;;;0.80;;
57155;SDS011;43023;59.928;10.682;2023-07-22T12:02:47;6.53;;;1.05;;
57155;SDS011;43023;59.928;10.682;2023-07-22T12:05:20;2.95;;;0.90;;
57155;SDS011;43023;59.928;10.682;2023-07-22T12:07:46;7.88;;;0.90;;
57155;SDS011;43023;59.928;10.682;2023-07-22T12:10:12;3.95;;;0.88;;
57155;SDS011;43023;59.928;10.682;2023-07-22T12:12:42;4.07;;;0.95;;
57155;SDS011;43023;59.928;10.682;2023-07-22T12:20:11;2.58;;;0.90;;
57155;SDS011;43023;59.928;10.682;2023-07-22T12:22:37;1.95;;;0.75;;
57155;SDS011;43023;59.928;10.682;2023-07-22T12:25:04;2.90;;;0.80;;
57155;SDS011;43023;59.928;10.682;2023-07-22T12:27:31;3.13;;;1.02;;
57155;SDS011;43023;59.928;10.682;2023-07-22T12:29:57;2.50;;;1.00;;
57155;SDS011;43023;59.928;10.682;2023-07-22T12:32:23;4.60;;;0.95;;
57155;SDS011;43023;59.928;10.682;2023-07-22T12:34:49;0.88;;;0.60;;
57155;SDS011;43023;59.928;10.682;2023-07-22T12:37:15;2.17;;;0.93;;
57155;SDS011;43023;59.928;10.682;2023-07-22T12:39:41;1.20;;;0.55;;
57155;SDS011;43023;59.928;10.682;2023-07-22T12:42:07;1.75;;;0.70;;
57155;SDS011;43023;59.928;10.682;2023-07-22T12:44:33;3.80;;;0.88;;
57155;SDS011;43023;59.928;10.682;2023-07-22T12:46:59;1.35;;;0.80;;
57155;SDS011;43023;59.928;10.682;2023-07-22T12:49:25;3.25;;;1.02;;
57155;SDS011;43023;59.928;10.682;2023-07-22T12:51:51;2.22;;;0.73;;
57155;SDS011;43023;59.928;10.682;2023-07-22T12:54:17;2.50;;;1.30;;
57155;SDS011;43023;59.928;10.682;2023-07-22T12:56:43;1.00;;;0.50;;
57155;SDS011;43023;59.928;10.682;2023-07-22T12:59:10;3.53;;;0.75;;
57155;SDS011;43023;59.928;10.682;2023-07-22T13:01:36;4.05;;;0.52;;
57155;SDS011;43023;59.928;10.682;2023-07-22T13:04:04;1.83;;;0.80;;
57155;SDS011;43023;59.928;10.682;2023-07-22T13:06:30;3.38;;;1.25;;
57155;SDS011;43023;59.928;10.682;2023-07-22T13:08:56;0.50;;;0.45;;
57155;SDS011;43023;59.928;10.682;2023-07-22T13:11:22;2.28;;;0.52;;
57155;SDS011;43023;59.928;10.682;2023-07-22T13:13:49;3.88;;;0.73;;
57155;SDS011;43023;59.928;10.682;2023-07-22T13:16:15;3.28;;;0.85;;
57155;SDS011;43023;59.928;10.682;2023-07-22T13:18:41;5.38;;;0.85;;
57155;SDS011;43023;59.928;10.682;2023-07-22T13:21:07;2.67;;;0.68;;
57155;SDS011;43023;59.928;10.682;2023-07-22T13:23:33;5.75;;;0.93;;
57155;SDS011;43023;59.928;10.682;2023-07-22T13:26:00;4.43;;;0.80;;
57155;SDS011;43023;59.928;10.682;2023-07-22T13:28:26;0.80;;;0.70;;
57155;SDS011;43023;59.928;10.682;2023-07-22T13:30:52;2.53;;;0.70;;
57155;SDS011;43023;59.928;10.682;2023-07-22T13:33:18;6.60;;;0.90;;
57155;SDS011;43023;59.928;10.682;2023-07-22T13:35:44;1.52;;;0.55;;
57155;SDS011;43023;59.928;10.682;2023-07-22T13:38:10;1.33;;;0.57;;
57155;SDS011;43023;59.928;10.682;2023-07-22T13:40:36;3.15;;;0.75;;
57155;SDS011;43023;59.928;10.682;2023-07-22T13:43:02;13.82;;;1.27;;
57155;SDS011;43023;59.928;10.682;2023-07-22T13:45:28;6.93;;;0.75;;
57155;SDS011;43023;59.928;10.682;2023-07-22T13:47:55;2.47;;;0.70;;
57155;SDS011;43023;59.928;10.682;2023-07-22T13:50:21;1.92;;;1.10;;
57155;SDS011;43023;59.928;10.682;2023-07-22T13:52:47;4.10;;;1.00;;
57155;SDS011;43023;59.928;10.682;2023-07-22T13:55:13;2.15;;;0.70;;
57155;SDS011;43023;59.928;10.682;2023-07-22T13:57:40;2.35;;;0.95;;
57155;SDS011;43023;59.928;10.682;2023-07-22T14:00:06;1.88;;;0.80;;
57155;SDS011;43023;59.928;10.682;2023-07-22T14:02:33;3.50;;;1.23;;
57155;SDS011;43023;59.928;10.682;2023-07-22T14:04:59;1.38;;;1.05;;
57155;SDS011;43023;59.928;10.682;2023-07-22T14:07:25;3.00;;;0.85;;
57155;SDS011;43023;59.928;10.682;2023-07-22T14:09:51;4.43;;;0.90;;
57155;SDS011;43023;59.928;10.682;2023-07-22T14:12:18;3.15;;;0.82;;
57155;SDS011;43023;59.928;10.682;2023-07-22T14:14:44;2.15;;;1.00;;
57155;SDS011;43023;59.928;10.682;2023-07-22T14:17:10;2.05;;;0.70;;
57155;SDS011;43023;59.928;10.682;2023-07-22T14:19:36;2.92;;;0.70;;
57155;SDS011;43023;59.928;10.682;2023-07-22T14:22:03;2.42;;;0.95;;
57155;SDS011;43023;59.928;10.682;2023-07-22T14:24:29;2.22;;;0.88;;
57155;SDS011;43023;59.928;10.682;2023-07-22T14:26:55;1.27;;;1.17;;
57155;SDS011;43023;59.928;10.682;2023-07-22T14:29:22;3.05;;;1.08;;
57155;SDS011;43023;59.928;10.682;2023-07-22T14:31:50;2.67;;;0.95;;
57155;SDS011;43023;59.928;10.682;2023-07-22T14:34:16;1.33;;;1.00;;
57155;SDS011;43023;59.928;10.682;2023-07-22T14:36:42;0.90;;;0.60;;
57155;SDS011;43023;59.928;10.682;2023-07-22T14:39:08;1.70;;;0.93;;
57155;SDS011;43023;59.928;10.682;2023-07-22T14:41:34;2.47;;;1.27;;
57155;SDS011;43023;59.928;10.682;2023-07-22T14:44:01;1.88;;;0.70;;
57155;SDS011;43023;59.928;10.682;2023-07-22T14:46:27;6.13;;;1.10;;
57155;SDS011;43023;59.928;10.682;2023-07-22T14:48:53;2.40;;;0.90;;
57155;SDS011;43023;59.928;10.682;2023-07-22T14:51:19;1.20;;;1.00;;